createdAt,value
2019-02-22T00:01:02.872Z,55613.84
2019-02-22T00:03:33.440Z,55586.86
2019-02-22T00:06:04.042Z,55545.43
2019-02-22T00:08:34.929Z,55542.54
2019-02-22T00:11:05.501Z,55536.75
2019-02-22T00:13:36.161Z,55474.13
2019-02-22T00:16:06.704Z,55503.03
2019-02-22T00:18:37.290Z,55478.95
2019-02-22T00:21:07.867Z,55471.24
2019-02-22T00:23:38.451Z,55490.51
2019-02-22T00:26:11.040Z,55451.97
2019-02-22T00:28:41.464Z,55475.09
2019-02-22T00:31:12.049Z,55547.35
2019-02-22T00:33:42.610Z,55550.25
2019-02-22T00:36:14.114Z,55528.08
2019-02-22T00:38:44.806Z,55548.32
2019-02-22T00:41:15.387Z,55523.27
2019-02-22T00:43:46.321Z,55528.08
2019-02-22T00:46:17.106Z,55523.27
2019-02-22T00:48:47.736Z,55518.45
2019-02-22T00:51:18.299Z,55554.10
2019-02-22T00:53:48.913Z,55541.57
2019-02-22T00:56:19.489Z,55571.44
2019-02-22T00:58:50.062Z,55535.79
2019-02-22T01:01:20.634Z,55580.11
2019-02-22T01:03:51.227Z,55595.53
2019-02-22T01:06:21.796Z,55592.64
2019-02-22T01:08:52.377Z,55638.89
2019-02-22T01:11:22.942Z,55614.80
2019-02-22T01:13:53.507Z,55637.93
2019-02-22T01:16:24.463Z,55670.68
2019-02-22T01:18:55.013Z,55657.20
2019-02-22T01:21:25.645Z,55650.45
2019-02-22T01:23:56.542Z,55662.98
2019-02-22T01:26:27.214Z,55669.72
2019-02-22T01:28:57.776Z,55618.66
2019-02-22T01:31:28.335Z,55653.34
2019-02-22T01:33:59.006Z,55598.42
2019-02-22T01:36:29.573Z,55565.66
2019-02-22T01:39:00.138Z,55530.01
2019-02-22T01:41:30.735Z,55468.35
2019-02-22T01:44:01.676Z,55447.15
2019-02-22T01:46:32.273Z,55394.16
2019-02-22T01:49:02.837Z,55354.66
2019-02-22T01:51:33.430Z,55268.91
2019-02-22T01:54:04.003Z,55233.27
2019-02-22T01:56:34.595Z,55212.07
2019-02-22T01:59:05.156Z,55176.43
2019-02-22T02:01:35.757Z,55123.44
2019-02-22T02:04:06.325Z,55105.14
2019-02-22T02:06:36.926Z,55054.08
2019-02-22T02:09:07.871Z,55044.45
2019-02-22T02:11:38.433Z,55041.55
2019-02-22T02:14:09.096Z,54995.31
2019-02-22T02:16:39.665Z,54989.54
2019-02-22T02:19:10.311Z,54950.04
2019-02-22T02:21:40.883Z,54975.09
2019-02-22T02:24:11.525Z,54937.51
2019-02-22T02:26:42.084Z,54955.82
2019-02-22T02:29:12.785Z,54895.13
2019-02-22T02:31:43.363Z,54924.03
2019-02-22T02:34:13.951Z,54903.80
2019-02-22T02:36:44.581Z,54890.31
2019-02-22T02:39:15.215Z,54902.84
2019-02-22T02:41:45.788Z,54868.15
2019-02-22T02:44:16.607Z,54863.34
2019-02-22T02:46:47.155Z,54850.82
2019-02-22T02:49:17.735Z,54866.23
2019-02-22T02:51:48.284Z,54887.42
2019-02-22T02:54:18.916Z,54898.02
2019-02-22T02:56:49.486Z,54847.93
2019-02-22T02:59:20.153Z,54837.33
2019-02-22T03:01:50.726Z,54862.38
2019-02-22T03:04:21.324Z,54802.65
2019-02-22T03:06:57.657Z,54819.99
2019-02-22T03:09:28.233Z,54814.21
2019-02-22T03:11:59.190Z,54818.06
2019-02-22T03:14:29.715Z,54789.16
2019-02-22T03:17:00.271Z,54784.35
2019-02-22T03:19:30.949Z,54829.62
2019-02-22T03:22:01.496Z,54798.80
2019-02-22T03:24:32.086Z,54772.79
2019-02-22T03:27:02.671Z,54823.84
2019-02-22T03:29:33.335Z,54801.69
2019-02-22T03:32:03.875Z,54823.84
2019-02-22T03:34:34.537Z,54828.66
2019-02-22T03:37:05.105Z,54850.82
2019-02-22T03:39:35.679Z,54818.06
2019-02-22T03:42:06.243Z,54829.62
2019-02-22T03:44:36.847Z,54794.95
2019-02-22T03:47:07.405Z,54780.50
2019-02-22T03:49:38.006Z,54680.32
2019-02-22T03:52:31.478Z,54689.95
2019-02-22T03:55:02.051Z,54696.69
2019-02-22T03:57:32.740Z,54728.48
2019-02-22T04:00:03.335Z,54703.43
2019-02-22T04:02:33.995Z,54681.28
2019-02-22T04:05:04.675Z,54678.39
2019-02-22T04:07:35.243Z,54653.34
2019-02-22T04:10:06.168Z,54667.79
2019-02-22T04:12:36.827Z,54675.50
2019-02-22T04:15:08.125Z,54687.06
2019-02-22T04:17:38.699Z,54647.56
2019-02-22T04:20:10.090Z,54696.69
2019-02-22T04:22:44.110Z,54645.64
2019-02-22T04:25:12.920Z,54673.57
2019-02-22T04:27:43.610Z,54640.82
2019-02-22T04:30:14.162Z,54678.39
2019-02-22T04:32:44.843Z,54671.64
2019-02-22T04:35:15.374Z,54669.72
2019-02-22T04:37:46.000Z,54686.09
2019-02-22T04:40:16.757Z,54677.43
2019-02-22T04:42:47.373Z,54677.43
2019-02-22T04:45:17.951Z,54680.32
2019-02-22T04:47:48.529Z,54715.96
2019-02-22T04:50:19.087Z,54662.02
2019-02-22T04:52:49.667Z,54697.66
2019-02-22T04:55:20.213Z,54680.32
2019-02-22T04:57:50.858Z,54683.21
2019-02-22T05:00:21.441Z,54727.52
2019-02-22T05:02:52.000Z,54720.77
2019-02-22T05:05:22.552Z,54766.05
2019-02-22T05:07:53.169Z,54798.80
2019-02-22T05:10:23.727Z,54742.93
2019-02-22T05:12:54.338Z,54791.09
2019-02-22T05:15:24.907Z,54766.05
2019-02-22T05:17:55.485Z,54795.91
2019-02-22T05:20:26.099Z,54776.64
2019-02-22T05:23:03.888Z,54783.39
2019-02-22T05:25:29.332Z,54777.61
2019-02-22T05:27:59.963Z,54819.99
2019-02-22T05:30:30.538Z,54808.43
2019-02-22T05:33:01.776Z,54756.41
2019-02-22T05:35:32.321Z,54793.02
2019-02-22T05:38:03.343Z,54786.28
2019-02-22T05:40:34.223Z,54789.16
2019-02-22T05:43:04.869Z,54770.86
2019-02-22T05:45:35.424Z,54764.12
2019-02-22T05:48:06.014Z,54791.09
2019-02-22T05:50:36.558Z,54785.31
2019-02-22T05:53:07.195Z,54764.12
2019-02-22T05:55:37.755Z,54774.71
2019-02-22T05:58:08.351Z,54798.80
2019-02-22T06:00:38.902Z,54753.52
2019-02-22T06:03:09.530Z,54774.71
2019-02-22T06:05:40.420Z,54764.12
2019-02-22T06:08:11.373Z,54740.04
2019-02-22T06:10:41.945Z,54750.63
2019-02-22T06:13:12.551Z,54717.88
2019-02-22T06:15:43.093Z,54717.88
2019-02-22T06:18:13.859Z,54720.77
2019-02-22T06:20:44.423Z,54747.74
2019-02-22T06:23:15.023Z,54685.13
2019-02-22T06:25:45.585Z,54734.26
2019-02-22T06:28:16.158Z,54735.22
2019-02-22T06:30:46.775Z,54723.66
2019-02-22T06:33:17.353Z,54721.73
2019-02-22T06:35:48.036Z,54708.25
2019-02-22T06:38:18.609Z,54710.18
2019-02-22T06:40:49.140Z,54688.98
2019-02-22T06:43:19.670Z,54688.98
2019-02-22T06:45:50.335Z,54692.84
2019-02-22T06:48:20.892Z,54660.09
2019-02-22T06:50:51.500Z,54706.32
2019-02-22T06:53:22.054Z,54660.09
2019-02-22T06:55:52.663Z,54675.50
2019-02-22T06:58:23.207Z,54630.23
2019-02-22T07:00:54.133Z,54594.59
2019-02-22T07:03:24.684Z,54595.55
2019-02-22T07:05:55.285Z,54595.55
2019-02-22T07:08:25.890Z,54610.00
2019-02-22T07:11:34.138Z,54610.00
2019-02-22T07:14:04.815Z,54553.17
2019-02-22T07:16:35.384Z,54550.28
2019-02-22T07:19:05.946Z,54503.08
2019-02-22T07:21:44.037Z,54533.91
2019-02-22T07:24:09.520Z,54513.68
2019-02-22T07:26:40.534Z,54474.19
2019-02-22T07:29:11.092Z,54420.25
2019-02-22T07:31:41.746Z,54409.65
2019-02-22T07:34:12.317Z,54407.73
2019-02-22T07:36:42.917Z,54403.87
2019-02-22T07:39:13.471Z,54377.87
2019-02-22T07:41:44.080Z,54342.23
2019-02-22T07:44:14.937Z,54323.93
2019-02-22T07:46:45.526Z,54269.03
2019-02-22T07:49:26.398Z,54243.99
2019-02-22T07:51:56.993Z,54230.50
2019-02-22T07:54:27.559Z,54192.95
2019-02-22T07:56:58.553Z,54151.53
2019-02-22T07:59:29.430Z,54180.43
2019-02-22T08:02:00.619Z,54118.79
2019-02-22T08:04:31.568Z,54091.82
2019-02-22T08:07:02.115Z,54087.97
2019-02-22T08:09:32.660Z,54061.96
2019-02-22T08:12:03.301Z,54044.63
2019-02-22T08:14:34.238Z,53997.44
2019-02-22T08:17:05.185Z,54035.96
2019-02-22T08:19:35.744Z,53980.11
2019-02-22T08:22:06.348Z,53973.36
2019-02-22T08:24:37.204Z,54009.00
2019-02-22T08:27:07.813Z,53950.25
2019-02-22T08:29:38.512Z,53927.14
2019-02-22T08:32:09.180Z,53891.50
2019-02-22T08:34:39.732Z,53878.02
2019-02-22T08:37:10.304Z,53859.72
2019-02-22T08:39:40.877Z,53839.50
2019-02-22T08:42:11.751Z,53820.24
2019-02-22T08:44:42.333Z,53798.09
2019-02-22T08:47:13.155Z,53840.46
2019-02-22T08:49:43.736Z,53757.64
2019-02-22T08:52:14.341Z,53771.13
2019-02-22T08:54:47.288Z,53735.50
2019-02-22T08:57:17.658Z,53710.46
2019-02-22T08:59:48.219Z,53694.09
2019-02-22T09:02:19.512Z,53722.02
2019-02-22T09:04:50.084Z,53655.57
2019-02-22T09:07:21.020Z,53642.09
2019-02-22T09:09:51.579Z,53642.09
2019-02-22T09:12:22.259Z,53664.23
2019-02-22T09:14:52.792Z,53563.13
2019-02-22T09:17:23.402Z,53537.13
2019-02-22T09:19:54.035Z,53513.05
2019-02-22T09:22:24.598Z,53471.65
2019-02-22T09:24:55.247Z,53400.39
2019-02-22T09:27:25.924Z,53317.59
2019-02-22T09:29:59.016Z,53254.04
2019-02-22T09:32:29.138Z,53190.49
2019-02-22T09:34:59.690Z,53137.54
2019-02-22T09:37:30.342Z,53019.11
2019-02-22T09:40:00.899Z,52973.86
2019-02-22T09:42:31.931Z,52938.24
2019-02-22T09:45:02.870Z,52896.84
2019-02-22T09:47:33.570Z,52907.43
2019-02-22T09:50:04.259Z,52931.50
2019-02-22T09:52:34.959Z,52993.12
2019-02-22T09:55:06.491Z,52959.42
2019-02-22T09:57:37.082Z,52951.72
2019-02-22T10:00:10.714Z,52902.62
2019-02-22T10:02:41.302Z,52942.09
2019-02-22T10:05:12.416Z,52890.10
2019-02-22T10:07:43.093Z,52877.59
2019-02-22T10:10:13.649Z,52845.82
2019-02-22T10:12:44.238Z,52810.20
2019-02-22T10:15:14.814Z,52787.09
2019-02-22T10:17:45.407Z,52738.95
2019-02-22T10:20:16.056Z,52724.52
2019-02-22T10:22:46.616Z,52766.87
2019-02-22T10:25:17.549Z,52704.30
2019-02-22T10:27:48.430Z,52714.89
2019-02-22T10:30:19.434Z,52725.48
2019-02-22T10:32:49.996Z,52779.39
2019-02-22T10:35:20.660Z,52756.29
2019-02-22T10:37:51.520Z,52814.05
2019-02-22T10:40:22.199Z,52770.72
2019-02-22T10:42:52.760Z,52756.29
2019-02-22T10:45:23.356Z,52774.57
2019-02-22T10:47:53.919Z,52783.24
2019-02-22T10:50:24.550Z,52766.87
2019-02-22T10:53:02.261Z,52774.57
2019-02-22T10:55:27.395Z,52761.10
2019-02-22T10:57:58.050Z,52735.11
2019-02-22T11:00:28.775Z,52736.07
2019-02-22T11:02:59.412Z,52700.45
2019-02-22T11:05:30.333Z,52721.62
2019-02-22T11:08:00.994Z,52658.09
2019-02-22T11:10:31.954Z,52616.69
2019-02-22T11:13:02.661Z,52593.59
2019-02-22T11:15:33.208Z,52558.93
2019-02-22T11:18:03.812Z,52513.69
2019-02-22T11:20:34.574Z,52524.28
2019-02-22T11:23:05.138Z,52437.64
2019-02-22T11:25:35.742Z,52299.99
2019-02-22T11:28:06.352Z,52174.86
2019-02-22T11:30:37.114Z,52269.19
2019-02-22T11:33:07.710Z,52341.38
2019-02-22T11:35:38.274Z,52403.95
2019-02-22T11:38:08.845Z,52438.61
2019-02-22T11:40:39.670Z,52447.27
2019-02-22T11:43:10.264Z,52452.08
2019-02-22T11:45:40.885Z,52567.60
2019-02-22T11:48:11.581Z,52574.34
2019-02-22T11:50:42.584Z,52551.23
2019-02-22T11:53:13.151Z,52597.44
2019-02-22T11:55:44.160Z,52627.29
2019-02-22T11:58:14.737Z,52617.66
2019-02-22T12:00:45.402Z,52604.18
2019-02-22T12:03:24.188Z,52567.60
2019-02-22T12:05:48.306Z,52572.41
2019-02-22T12:08:18.908Z,52546.42
2019-02-22T12:10:49.464Z,52589.74
2019-02-22T12:13:20.086Z,52608.99
2019-02-22T12:15:50.667Z,52586.85
2019-02-22T12:18:21.246Z,52616.69
2019-02-22T12:20:51.925Z,52598.40
2019-02-22T12:23:22.496Z,52555.08
2019-02-22T12:25:53.114Z,52528.13
2019-02-22T12:28:23.678Z,52494.44
2019-02-22T12:30:54.287Z,52484.81
2019-02-22T12:33:24.860Z,52457.86
2019-02-22T12:35:55.438Z,52485.77
2019-02-22T12:38:28.189Z,52526.20
2019-02-22T12:40:58.889Z,52500.21
2019-02-22T12:43:29.463Z,52481.92
2019-02-22T12:46:00.122Z,52527.17
2019-02-22T12:48:30.688Z,52529.09
2019-02-22T12:51:01.308Z,52529.09
2019-02-22T12:53:32.082Z,52545.46
2019-02-22T12:56:02.734Z,52589.74
2019-02-22T12:58:33.299Z,52593.59
2019-02-22T13:01:04.000Z,52605.14
2019-02-22T13:03:34.579Z,52527.17
2019-02-22T13:06:05.166Z,52561.82
2019-02-22T13:08:35.738Z,52571.45
2019-02-22T13:11:06.328Z,52547.38
2019-02-22T13:13:36.885Z,52510.80
2019-02-22T13:16:07.483Z,52509.84
2019-02-22T13:18:38.054Z,52485.77
2019-02-22T13:21:08.832Z,52499.25
2019-02-22T13:23:39.520Z,52511.77
2019-02-22T13:26:10.087Z,52503.10
2019-02-22T13:28:40.752Z,52442.46
2019-02-22T13:31:11.308Z,52414.54
2019-02-22T13:33:41.938Z,52410.69
2019-02-22T13:36:12.498Z,52421.28
2019-02-22T13:38:43.596Z,52420.32
2019-02-22T13:41:14.453Z,52440.53
2019-02-22T13:43:45.080Z,52439.57
2019-02-22T13:46:15.637Z,52388.55
2019-02-22T13:48:46.311Z,52349.08
2019-02-22T13:51:16.868Z,52395.29
2019-02-22T13:53:47.924Z,52454.97
2019-02-22T13:56:29.192Z,52454.97
2019-02-22T13:58:50.796Z,52481.92
2019-02-22T14:01:21.714Z,52531.98
2019-02-22T14:03:52.262Z,52564.71
2019-02-22T14:06:23.219Z,52583.96
2019-02-22T14:08:53.776Z,52547.38
2019-02-22T14:11:24.489Z,52619.58
2019-02-22T14:13:55.069Z,52603.21
2019-02-22T14:16:25.734Z,52590.70
2019-02-22T14:18:56.295Z,52602.25
2019-02-22T14:21:26.945Z,52562.79
2019-02-22T14:23:57.620Z,52505.03
2019-02-22T14:26:28.239Z,52549.31
2019-02-22T14:28:58.802Z,52495.40
2019-02-22T14:31:29.403Z,52420.32
2019-02-22T14:34:00.049Z,52433.79
2019-02-22T14:36:31.082Z,52314.43
2019-02-22T14:39:01.827Z,52085.34
2019-02-22T14:41:32.366Z,52145.02
2019-02-22T14:44:02.961Z,52213.36
2019-02-22T14:46:33.532Z,52332.72
2019-02-22T14:49:04.109Z,52442.46
2019-02-22T14:51:34.681Z,52430.91
2019-02-22T14:54:05.274Z,52393.36
2019-02-22T14:56:35.794Z,52405.87
2019-02-22T14:59:06.536Z,52395.29
2019-02-22T15:01:37.512Z,52316.36
2019-02-22T15:04:08.133Z,52335.61
2019-02-22T15:06:40.406Z,52407.80
2019-02-22T15:09:11.166Z,52450.16
2019-02-22T15:11:41.739Z,52471.34
2019-02-22T15:14:12.726Z,52493.47
2019-02-22T15:17:01.049Z,52516.58
2019-02-22T15:19:31.937Z,52526.20
2019-02-22T15:22:02.587Z,52531.98
2019-02-22T15:24:33.235Z,52593.59
2019-02-22T15:27:03.780Z,52628.25
2019-02-22T15:29:34.372Z,52625.36
2019-02-22T15:32:04.938Z,52632.10
2019-02-22T15:34:35.878Z,52598.40
2019-02-22T15:37:06.444Z,52591.66
2019-02-22T15:39:37.064Z,52565.67
2019-02-22T15:42:07.658Z,52458.82
2019-02-22T15:44:38.269Z,52226.84
2019-02-22T15:47:12.058Z,52276.89
2019-02-22T15:49:41.774Z,52468.45
2019-02-22T15:52:12.428Z,52537.75
2019-02-22T15:54:42.988Z,52597.44
2019-02-22T15:57:13.596Z,52616.69
2019-02-22T15:59:44.510Z,52599.37
2019-02-22T16:02:15.170Z,52669.64
2019-02-22T16:04:52.599Z,52716.81
2019-02-22T16:07:23.181Z,52765.91
2019-02-22T16:09:53.796Z,52755.32
2019-02-22T16:12:24.473Z,52805.38
2019-02-22T16:14:55.091Z,52843.89
2019-02-22T16:17:25.674Z,52914.17
2019-02-22T16:19:56.540Z,52947.87
2019-02-22T16:22:27.143Z,53004.67
2019-02-22T16:24:57.705Z,53021.04
2019-02-22T16:27:28.682Z,53026.81
2019-02-22T16:29:59.252Z,53057.62
2019-02-22T16:32:30.282Z,53082.66
2019-02-22T16:35:01.212Z,53159.68
2019-02-22T16:37:32.333Z,53158.72
2019-02-22T16:40:03.214Z,53227.08
2019-02-22T16:42:33.995Z,53184.71
2019-02-22T16:45:05.187Z,53199.16
2019-02-22T16:47:40.078Z,53252.11
2019-02-22T16:50:10.730Z,53250.19
2019-02-22T16:52:41.403Z,53250.19
2019-02-22T16:55:14.126Z,53317.59
2019-02-22T16:57:44.692Z,53320.48
2019-02-22T17:00:16.449Z,53410.99
2019-02-22T17:02:47.221Z,53440.84
2019-02-22T17:05:18.169Z,53544.83
2019-02-22T17:07:48.718Z,53617.05
2019-02-22T17:10:19.299Z,53726.83
2019-02-22T17:12:49.876Z,53915.58
2019-02-22T17:15:21.500Z,54046.55
2019-02-22T17:17:52.072Z,54232.43
2019-02-22T17:20:22.680Z,54346.09
2019-02-22T17:22:53.218Z,54504.04
2019-02-22T17:25:23.791Z,54726.55
2019-02-22T17:27:54.424Z,54891.27
2019-02-22T17:30:24.997Z,54935.59
2019-02-22T17:32:55.582Z,54936.55
2019-02-22T17:35:26.158Z,54987.61
2019-02-22T17:37:56.742Z,54972.20
2019-02-22T17:40:27.659Z,55004.95
2019-02-22T17:42:58.337Z,54985.68
2019-02-22T17:45:28.899Z,55047.34
2019-02-22T17:47:59.842Z,55066.60
2019-02-22T17:50:30.412Z,55078.16
2019-02-22T17:53:01.052Z,55114.77
2019-02-22T17:55:31.616Z,55128.26
2019-02-22T17:58:02.201Z,55135.96
2019-02-22T18:00:33.093Z,55184.14
2019-02-22T18:03:03.675Z,55213.04
2019-02-22T18:05:34.559Z,55224.60
2019-02-22T18:08:05.325Z,55255.43
2019-02-22T18:10:36.257Z,55250.61
2019-02-22T18:13:06.914Z,55211.11
2019-02-22T18:15:37.803Z,55249.64
2019-02-22T18:18:08.412Z,55245.79
2019-02-22T18:20:39.268Z,55251.57
2019-02-22T18:23:09.820Z,55231.34
2019-02-22T18:25:40.498Z,55255.43
2019-02-22T18:28:11.063Z,55219.78
2019-02-22T18:30:41.653Z,55207.26
2019-02-22T18:33:12.215Z,55173.54
2019-02-22T18:35:42.832Z,55178.36
2019-02-22T18:38:15.295Z,55140.78
2019-02-22T18:40:46.045Z,55142.71
2019-02-22T18:43:18.397Z,55092.61
2019-02-22T18:45:49.407Z,55064.68
2019-02-22T18:48:19.972Z,55039.63
2019-02-22T18:50:50.949Z,55012.65
2019-02-22T18:53:21.485Z,55017.47
2019-02-22T18:55:52.122Z,54983.75
2019-02-22T18:58:22.780Z,55059.86
2019-02-22T19:00:53.537Z,55026.14
2019-02-22T19:03:24.017Z,55039.63
2019-02-22T19:05:54.685Z,55006.87
2019-02-22T19:08:32.370Z,54987.61
2019-02-22T19:10:57.899Z,54981.83
2019-02-22T19:13:28.504Z,54984.71
2019-02-22T19:15:59.387Z,54990.50
2019-02-22T19:18:30.003Z,55011.69
2019-02-22T19:21:00.871Z,55043.48
2019-02-22T19:23:31.459Z,55030.00
2019-02-22T19:26:02.027Z,55082.98
2019-02-22T19:28:32.622Z,55080.09
2019-02-22T19:31:03.185Z,55079.12
2019-02-22T19:33:34.098Z,55083.94
2019-02-22T19:36:04.950Z,55059.86
2019-02-22T19:38:35.554Z,55069.49
2019-02-22T19:41:06.124Z,55090.69
2019-02-22T19:43:36.724Z,55108.99
2019-02-22T19:46:07.289Z,55112.84
2019-02-22T19:48:37.987Z,55072.38
2019-02-22T19:51:08.942Z,55104.18
2019-02-22T19:53:39.840Z,55108.99
2019-02-22T19:56:10.430Z,55174.50
2019-02-22T19:58:47.163Z,55212.07
2019-02-22T20:01:17.738Z,55230.38
2019-02-22T20:03:48.652Z,55212.07
2019-02-22T20:06:19.222Z,55212.07
2019-02-22T20:08:49.886Z,55219.78
2019-02-22T20:11:20.807Z,55246.75
2019-02-22T20:13:51.501Z,55245.79
2019-02-22T20:16:22.419Z,55273.73
2019-02-22T20:18:53.028Z,55201.48
2019-02-22T20:21:23.730Z,55278.55
2019-02-22T20:23:54.554Z,55257.36
2019-02-22T20:26:25.064Z,55230.38
2019-02-22T20:28:55.630Z,55213.04
2019-02-22T20:31:26.739Z,55188.95
2019-02-22T20:33:57.322Z,55157.16
2019-02-22T20:36:28.846Z,55165.83
2019-02-22T20:38:59.639Z,55124.41
2019-02-22T20:41:30.500Z,55057.93
2019-02-22T20:44:01.186Z,55022.29
2019-02-22T20:46:32.370Z,55037.70
2019-02-22T20:49:02.950Z,55004.95
2019-02-22T20:51:33.534Z,54935.59
2019-02-22T20:54:04.553Z,54849.85
2019-02-22T20:56:35.136Z,54830.59
2019-02-22T20:59:05.786Z,54765.08
2019-02-22T21:01:36.333Z,54730.41
2019-02-22T21:04:06.926Z,54655.27
2019-02-22T21:06:37.594Z,54673.57
2019-02-22T21:09:08.147Z,54647.56
2019-02-22T21:11:38.729Z,54613.85
2019-02-22T21:14:09.333Z,54612.89
2019-02-22T21:16:39.990Z,54556.06
2019-02-22T21:19:10.527Z,54557.02
2019-02-22T21:21:41.129Z,54548.35
2019-02-22T21:24:12.338Z,54514.64
2019-02-22T21:26:43.274Z,54518.49
2019-02-22T21:29:13.846Z,54510.79
2019-02-22T21:31:44.419Z,54492.49
2019-02-22T21:34:14.988Z,54460.70
2019-02-22T21:36:46.012Z,54462.63
2019-02-22T21:39:16.889Z,54421.21
2019-02-22T21:41:47.570Z,54408.69
2019-02-22T21:44:18.128Z,54426.99
2019-02-22T21:46:48.799Z,54422.18
2019-02-22T21:49:19.670Z,54405.80
2019-02-22T21:51:50.261Z,54387.50
2019-02-22T21:54:20.806Z,54421.21
2019-02-22T21:56:51.731Z,54419.29
2019-02-22T21:59:22.303Z,54380.76
2019-02-22T22:01:52.888Z,54391.35
2019-02-22T22:04:23.441Z,54379.79
2019-02-22T22:06:54.049Z,54385.57
2019-02-22T22:09:24.610Z,54355.71
2019-02-22T22:11:55.219Z,54363.42
2019-02-22T22:14:25.888Z,54346.09
2019-02-22T22:16:56.479Z,54335.49
2019-02-22T22:19:27.035Z,54320.08
2019-02-22T22:21:57.634Z,54317.19
2019-02-22T22:24:28.199Z,54286.37
2019-02-22T22:26:58.810Z,54296.96
2019-02-22T22:29:29.401Z,54275.77
2019-02-22T22:31:59.962Z,54269.03
2019-02-22T22:34:30.874Z,54218.95
2019-02-22T22:37:01.511Z,54216.06
2019-02-22T22:39:32.084Z,54186.20
2019-02-22T22:42:02.716Z,54147.68
2019-02-22T22:44:33.269Z,54147.68
2019-02-22T22:47:04.014Z,54155.38
2019-02-22T22:49:34.599Z,54139.01
2019-02-22T22:52:05.208Z,54108.19
2019-02-22T22:54:36.031Z,54105.30
2019-02-22T22:57:06.869Z,54111.08
2019-02-22T22:59:37.823Z,54106.27
2019-02-22T23:02:08.860Z,54088.93
2019-02-22T23:04:40.019Z,54130.34
2019-02-22T23:07:10.710Z,54111.08
2019-02-22T23:09:41.642Z,54109.16
2019-02-22T23:12:12.481Z,54078.34
2019-02-22T23:14:43.030Z,54081.23
2019-02-22T23:17:13.647Z,54092.78
2019-02-22T23:19:44.216Z,54061.00
2019-02-22T23:22:15.077Z,54047.52
2019-02-22T23:24:45.661Z,54078.34
2019-02-22T23:27:16.879Z,54080.26
2019-02-22T23:29:47.361Z,54049.44
2019-02-22T23:32:18.184Z,54101.45
2019-02-22T23:34:48.796Z,54064.86
2019-02-22T23:37:19.545Z,54044.63
2019-02-22T23:39:50.166Z,54062.93
2019-02-22T23:42:20.930Z,54035.96
2019-02-22T23:44:51.537Z,54061.96
2019-02-22T23:47:22.032Z,54014.77
2019-02-22T23:49:52.679Z,54039.81
2019-02-22T23:52:23.599Z,54012.85
2019-02-22T23:54:54.265Z,54029.22
2019-02-22T23:57:24.867Z,53994.55
2019-02-22T23:59:55.439Z,54022.48
